Главная страница
METAR-TAF:

METAR-TAF

Аэропорты :

Пхеньян, Северная Корея

Сунан

широта: 39-02N, долгота: 125-47E, высота над уровнем моря: 36 м

METAR: отсутствует

Время: 06:13 (21:43 UTC)

Прогноз

Эта сводка был подготовлена 17 часа и 13 минут назад, в 04:30 UTC
Прогноз действительный с 25-го 06 UTC до 26-го 06 UTC
Ветер 8 Узел от северно-северо-западный
Видимость 10 км и более
Нет облачности ниже 1500 м, и нет кучево-дождевой облачности

TAF: ZKPY 250430Z 2506/2606 34004MPS CAVOK TX22/2506Z TN10/2522Z

Метеонаблюдения и прогнозы для более 4000 аэропортов (сводки METAR и TAF).

Имеющиеся станции представлены на карте желтыми и красными точками.

Чтобы увидеть название станции, наведите на нее мышь.

Затем щелкните, чтобы увидеть метеонаблюдения и метеопрогнозы.

Управление картой: чтобы увеличить масштаб, щелкните зеленые кнопки с черным крестиком; чтобы уменьшить масштаб, щелкните зеленую кнопку с тире; для просмотра соседних карт щелкайте зеленые стрелки.


METAR-TAF: